Monday, December 17, 2018, 6:10 AM EST
Back to Local

KFYJ, West Point, Middle Peninsula Regional Airport

Location: Shacklefords, VA, United States Lat: 37.521
Local Time: 6:10 AM EST (11:10 GMT) Lon: -76.764
Time Zone: US/Eastern Elev: 22 ft

Show me the last for .
Show Coded

Time T Td Feel RH Dir Speed Gust Alt SLP Vis Weather Sky Remarks
2018-12-17 05:55 35 35 - 100 - Calm - 29.94 - 10 CLR None
2018-12-17 05:35 34 34 31 100 240° 3 - 29.94 - 10 CLR None
2018-12-17 05:15 35 35 31 100 270° 5 - 29.93 - 10 CLR None
2018-12-17 04:55 36 36 33 100 260° 3 - 29.93 - 10 CLR None
2018-12-17 04:35 36 36 32 100 260° 5 - 29.93 - 10 CLR None
2018-12-17 04:15 37 37 33 100 260° 5 - 29.94 - 10 CLR None
2018-12-17 03:50 38 38 34 100 270° 5 - 29.94 - 10 CLR None
2018-12-17 03:35 38 38 33 99 250° 6 - 29.95 - 10 CLR None
2018-12-17 03:15 38 38 33 99 260° 7 - 29.95 - 10 CLR None
2018-12-17 02:55 39 38 36 96 260° 5 - 29.94 - 10 CLR None
2018-12-17 02:35 40 38 36 95 260° 6 - 29.95 - 10 CLR None
2018-12-17 02:10 41 39 38 92 260° 6 - 29.95 - 10 BKN039 None
2018-12-17 01:55 42 40 40 91 250° 3 - 29.96 - 10 OVC039 None
2018-12-17 01:35 42 39 40 90 270° 3 - 29.95 - 10 OVC039 None
2018-12-17 01:10 42 39 37 89 260° 7 - 29.95 - 10 OVC039 None
2018-12-17 00:55 42 39 - 88 - Calm - 29.95 - 10 OVC039 6-hr Min Temp (1am): 41.4°F
6-hr Max Temp (1am): 43.7°F
24-hr Min Temp (1am): 41.4°F
24-hr Max Temp (1am): 52.5°F
2018-12-17 00:35 42 39 39 87 300° 5 - 29.94 - 10 OVC039 None
2018-12-17 00:10 42 39 41 86 300° 3 - 29.94 - 10 OVC037 None
2018-12-16 23:50 43 39 39 86 280° 6 - 29.95 - 10 OVC035 None
2018-12-16 23:35 43 39 41 86 280° 3 - 29.95 - 10 OVC035 None
2018-12-16 23:15 43 39 39 85 290° 6 - 29.95 - 10 OVC035 None
2018-12-16 22:50 42 39 39 86 280° 6 - 29.95 - 10 OVC035 None
2018-12-16 22:35 42 39 - 87 - Calm - 29.95 - 10 OVC035 None
2018-12-16 22:15 42 39 39 89 290° 5 - 29.95 - 10 OVC035 None
2018-12-16 21:55 42 39 40 90 300° 3 - 29.95 - 10 OVC037 None
2018-12-16 21:35 42 40 38 91 300° 6 - 29.95 - 10 BKN039 None
2018-12-16 21:15 42 39 39 91 300° 5 - 29.94 - 10 CLR None
2018-12-16 20:50 42 39 38 90 310° 6 - 29.94 - 10 CLR None
2018-12-16 20:35 42 40 38 92 300° 7 - 29.94 - 10 SCT014 None
2018-12-16 20:15 43 40 39 91 300° 6 - 29.93 - 10 BKN014 None
2018-12-16 19:55 43 41 40 92 300° 5 - 29.93 - 10 OVC014 None
2018-12-16 19:35 43 41 40 91 310° 5 - 29.92 - 10 OVC014 None
2018-12-16 19:15 44 41 41 88 310° 5 - 29.92 - 10 OVC014 None
2018-12-16 18:55 44 41 39 89 330° 8 - 29.91 - 10 OVC014 6-hr Min Temp (7pm): 43.7°F
6-hr Max Temp (7pm): 48.2°F
2018-12-16 18:35 44 41 36 89 300° 10 20 29.91 - 10 OVC014 None
2018-12-16 18:15 45 42 37 89 300° 12 18 29.90 - 10 OVC014 None
2018-12-16 17:55 45 42 40 90 300° 8 - 29.89 - 10 OVC012 None
2018-12-16 17:30 45 43 37 92 290° 9 17 29.88 - 10 OVC010 None
2018-12-16 17:15 45 43 37 93 310° 9 17 29.87 - 10 OVC010 None
2018-12-16 16:55 46 43 41 92 310° 8 - 29.87 - 10 OVC010 None
2018-12-16 16:35 46 44 39 92 300° 7 17 29.86 - 10 OVC010 None
2018-12-16 16:15 46 44 41 91 290° 10 - 29.86 - 10 OVC010 None
2018-12-16 15:55 46 45 42 94 290° 8 - 29.86 - 10 BKN010 OVC013 None
2018-12-16 15:30 47 46 43 93 280° 9 - 29.84 - 10 BKN010 OVC016 None
2018-12-16 15:15 47 46 43 94 300° 9 - 29.84 - 10 BKN010 OVC015 None
2018-12-16 14:50 47 46 45 92 310° 6 - 29.83 - 10 SCT010 OVC016 None
2018-12-16 14:35 47 46 45 94 300° 6 - 29.82 - 10 SCT010 BKN016 OVC022 None
2018-12-16 14:15 48 46 41 95 310° 6 16 29.81 - 10 BKN014 OVC020 None
2018-12-16 13:55 48 47 45 95 300° 7 - 29.81 - 10 BKN015 BKN022 OVC032 None
2018-12-16 13:35 48 46 44 95 300° 7 - 29.81 - 10 SCT006 BKN010 OVC021 None
2018-12-16 13:15 48 47 44 98 300° 7 - 29.81 - 4 OVC008 None
2018-12-16 12:55 48 47 44 95 270° 10 - 29.81 - 10 OVC010 6-hr Min Temp (1pm): 47.7°F
6-hr Max Temp (1pm): 52.5°F
2018-12-16 12:35 49 47 44 92 270° 12 - 29.81 - 10 OVC012 None
2018-12-16 12:10 49 47 46 92 270° 8 - 29.81 - 5 OVC014 None
2018-12-16 11:50 50 47 - 87 260° 10 - 29.81 - 10 OVC014 None
2018-12-16 11:35 50 47 - 87 260° 10 - 29.81 - 10 OVC016 None
2018-12-16 11:12 50 46 47 87 260° 8 - 29.83 - 10 BKN016 OVC023 None
2018-12-16 10:35 52 47 - 85 220° 7 - 29.85 - 10 CLR None
2018-12-16 10:10 49 47 45 94 250° 8 - 29.86 - 10 BKN010 BKN013 BKN025 None
2018-12-16 09:55 48 47 45 93 230° 7 - 29.87 - 10 OVC013 None
2018-12-16 09:30 48 47 44 94 230° 10 - 29.88 - 10 OVC013 None
2018-12-16 09:15 49 47 45 94 230° 7 - 29.87 - 10 OVC012 None
2018-12-16 08:55 48 47 46 95 210° 6 - 29.87 - 10 OVC011 None
2018-12-16 08:30 49 47 47 94 230° 5 - 29.86 - 10 SCT011 SCT120 None
2018-12-16 08:10 48 46 44 95 230° 7 - 29.87 - 10 BKN011 OVC120 None
2018-12-16 07:55 48 46 43 94 240° 10 - 29.87 - 10 OVC009 None
2018-12-16 07:35 48 47 44 94 220° 9 - 29.86 - 10 OVC009 None
2018-12-16 07:10 48 47 45 96 220° 8 - 29.86 - 10 OVC009 None
2018-12-16 06:50 48 48 46 97 210° 6 - 29.87 - 10 OVC007 6-hr Min Temp (7am): 48.2°F
6-hr Max Temp (7am): 51.4°F
2018-12-16 06:30 49 48 47 96 230° 5 - 29.86 - 10 OVC007 None
2018-12-16 06:15 49 48 47 97 230° 5 - 29.87 - 10 OVC007 None

Support USWX by starting your Amazon purchase here.